Time;durP1;ratioP1;P1;durP2;ratioP2;P2;SDS_P1;SDS_P2;PMS_P1;PMS_P2;Temp;Humidity;BMP_temperature;BMP_pressure;BME280_temperature;BME280_humidity;BME280_pressure;Samples;Min_cycle;Max_cycle;Signal;HPM_P1;HPM_P2
2022/08/23 00:02:25;;;;;;;3.70;1.88;;;;;;;23.07;51.50;99727.31;5038649;28;20053;-87
2022/08/23 00:04:52;;;;;;;3.45;1.88;;;;;;;23.05;51.48;99723.97;5038577;28;20053;-85
2022/08/23 00:07:35;;;;;;;3.50;2.00;;;;;;;23.02;51.82;99717.09;5039315;28;20068;-88
2022/08/23 00:10:05;;;;;;;4.47;2.00;;;;;;;23.02;51.63;99722.44;5038227;28;20579;-85
2022/08/23 00:12:32;;;;;;;6.00;2.40;;;;;;;23.01;51.30;99723.47;5035300;28;20053;-84
2022/08/23 00:14:59;;;;;;;6.22;2.10;;;;;;;23.02;51.36;99718.91;5036671;28;20064;-84
2022/08/23 00:17:26;;;;;;;6.68;2.30;;;;;;;23.02;51.53;99714.41;5037834;28;20488;-84
2022/08/23 00:20:08;;;;;;;3.30;2.05;;;;;;;23.00;51.30;99721.81;5030410;28;20404;-84
2022/08/23 00:22:36;;;;;;;4.72;2.20;;;;;;;23.02;51.55;99708.19;5033003;28;20053;-85
2022/08/23 00:25:05;;;;;;;3.75;1.88;;;;;;;23.04;51.58;99714.22;5032745;28;20053;-85
2022/08/23 00:27:32;;;;;;;3.78;1.92;;;;;;;23.02;51.35;99711.72;5034095;28;20057;-85
2022/08/23 00:29:59;;;;;;;3.80;2.00;;;;;;;23.04;51.78;99709.72;5034048;28;20057;-85
2022/08/23 00:32:31;;;;;;;3.60;1.63;;;;;;;23.02;51.66;99709.03;5033042;28;20064;-85
2022/08/23 00:34:59;;;;;;;3.63;1.85;;;;;;;23.04;51.30;99701.66;5032977;28;20060;-87
2022/08/23 00:37:28;;;;;;;3.63;2.05;;;;;;;23.02;51.54;99705.50;5033849;28;20068;-87
2022/08/23 00:39:54;;;;;;;3.97;2.10;;;;;;;23.02;51.18;99708.19;5033681;28;20049;-85
2022/08/23 00:48:00;;;;;;;5.57;1.65;;;;;;;23.01;51.40;99701.16;5033675;28;20046;-86
2022/08/23 00:50:48;;;;;;;3.58;2.42;;;;;;;22.94;51.18;99697.50;5032184;28;20507;-87
2022/08/23 00:53:27;;;;;;;2.75;1.40;;;;;;;22.94;51.16;99694.81;5032839;28;20058;-86
2022/08/23 00:55:58;;;;;;;4.13;2.00;;;;;;;22.95;51.37;99702.66;5036157;28;20061;-85
2022/08/23 00:58:26;;;;;;;4.50;1.67;;;;;;;22.94;50.48;99695.63;5035058;28;20056;-86
2022/08/23 01:00:55;;;;;;;3.33;1.90;;;;;;;22.91;51.06;99702.16;5033952;28;20061;-86
2022/08/23 01:03:23;;;;;;;4.22;2.15;;;;;;;22.91;50.73;99701.31;5033662;28;20049;-86
2022/08/23 01:05:58;;;;;;;6.38;2.53;;;;;;;22.88;51.50;99704.38;5035104;28;20054;-85
2022/08/23 01:08:28;;;;;;;3.50;1.90;;;;;;;22.88;50.99;99699.00;5035213;28;20488;-84
2022/08/23 01:11:27;;;;;;;2.70;1.85;;;;;;;22.82;50.45;99697.81;5033460;28;20053;-85
2022/08/23 01:13:57;;;;;;;2.63;1.80;;;;;;;22.86;49.97;99695.63;5034922;28;20057;-86
2022/08/23 01:16:44;;;;;;;7.63;1.90;;;;;;;22.80;50.66;99688.28;5033555;28;20057;-85
2022/08/23 01:19:19;;;;;;;4.85;2.20;;;;;;;22.77;49.95;99692.94;5034600;28;20060;-86
2022/08/23 01:21:56;;;;;;;3.13;1.77;;;;;;;22.74;50.02;99697.84;5034573;28;20057;-86
2022/08/23 01:24:23;;;;;;;6.03;1.85;;;;;;;22.71;50.11;99687.44;5034341;28;20053;-86
2022/08/23 01:27:11;;;;;;;3.10;1.80;;;;;;;22.68;49.87;99695.84;5035101;28;20458;-86
2022/08/23 01:29:39;;;;;;;4.50;1.90;;;;;;;22.66;49.63;99698.69;5034965;28;20057;-86
2022/08/23 01:32:11;;;;;;;2.85;2.00;;;;;;;22.61;49.59;99690.31;5034906;28;20057;-86
2022/08/23 01:34:38;;;;;;;5.43;2.10;;;;;;;22.60;49.73;99694.81;5032149;28;20049;-86
2022/08/23 01:37:19;;;;;;;2.33;1.50;;;;;;;22.59;49.69;99692.31;5034272;28;20053;-87
2022/08/23 01:39:46;;;;;;;4.07;1.90;;;;;;;22.54;49.41;99682.03;5034612;28;20056;-86
2022/08/23 01:42:13;;;;;;;5.13;2.20;;;;;;;22.50;48.67;99686.91;5035279;28;20060;-86
2022/08/23 01:44:39;;;;;;;4.18;1.98;;;;;;;22.47;48.92;99695.28;5035297;28;20060;-87
2022/08/23 01:47:06;;;;;;;3.13;2.00;;;;;;;22.45;48.44;99691.09;5033788;28;20041;-87
2022/08/23 01:49:33;;;;;;;2.58;1.83;;;;;;;22.39;48.95;99688.06;5034934;28;20057;-86
2022/08/23 01:52:00;;;;;;;3.95;1.85;;;;;;;22.37;48.50;99690.09;5032743;28;20058;-86
2022/08/23 01:54:28;;;;;;;5.47;2.00;;;;;;;22.35;47.94;99691.28;5034169;28;20053;-86
2022/08/23 01:56:55;;;;;;;3.40;2.00;;;;;;;22.33;48.37;99687.91;5033712;28;20056;-86
2022/08/23 01:59:23;;;;;;;3.42;2.10;;;;;;;22.33;48.18;99691.44;5034592;28;20527;-86
2022/08/23 02:01:50;;;;;;;3.17;2.00;;;;;;;22.33;48.57;99687.91;5032772;28;20060;-87
2022/08/23 02:04:17;;;;;;;2.78;1.80;;;;;;;22.33;48.38;99687.91;5034089;28;20057;-87
2022/08/23 02:06:43;;;;;;;3.30;1.85;;;;;;;22.34;48.15;99692.25;5032539;28;20426;-86
2022/08/23 02:09:10;;;;;;;2.95;2.13;;;;;;;22.34;48.19;99690.41;5033692;28;20057;-87
2022/08/23 02:11:44;;;;;;;3.45;1.85;;;;;;;22.31;48.27;99696.09;5035344;28;20053;-86
2022/08/23 02:14:14;;;;;;;5.20;2.00;;;;;;;22.30;48.04;99698.94;5035608;28;20049;-87
2022/08/23 02:16:46;;;;;;;3.67;1.70;;;;;;;22.27;47.29;99694.75;5034752;28;20050;-88
2022/08/23 02:19:29;;;;;;;4.40;1.98;;;;;;;22.28;48.11;99699.13;5034526;28;20438;-84
2022/08/23 02:21:56;;;;;;;3.33;1.70;;;;;;;22.26;48.20;99696.63;5032775;28;20418;-85
2022/08/23 02:24:24;;;;;;;3.97;1.88;;;;;;;22.27;47.82;99697.44;5033882;28;20053;-85
2022/08/23 02:26:56;;;;;;;3.88;1.75;;;;;;;22.26;47.60;99696.63;5033095;28;20050;-85
2022/08/23 02:29:24;;;;;;;5.22;2.00;;;;;;;22.27;47.87;99694.75;5034129;28;20523;-83
2022/08/23 02:31:51;;;;;;;4.93;1.60;;;;;;;22.26;47.45;99693.09;5033596;28;20124;-84
2022/08/23 02:34:19;;;;;;;4.72;2.10;;;;;;;22.25;47.73;99694.09;5034383;28;20088;-85
2022/08/23 02:37:01;;;;;;;2.65;1.60;;;;;;;22.23;48.02;99693.41;5034565;28;20211;-84
2022/08/23 02:39:29;;;;;;;2.55;1.73;;;;;;;22.20;47.97;99694.59;5033969;28;20106;-85
2022/08/23 02:41:56;;;;;;;2.08;1.58;;;;;;;22.17;47.65;99694.94;5034701;28;20111;-85
2022/08/23 02:44:23;;;;;;;2.45;1.70;;;;;;;22.15;47.62;99696.94;5033624;28;20191;-85
2022/08/23 02:46:50;;;;;;;3.53;1.80;;;;;;;22.12;48.04;99695.41;5034324;28;20050;-85
2022/08/23 02:49:17;;;;;;;4.93;1.92;;;;;;;22.11;47.87;99700.94;5032165;28;20054;-85
2022/08/23 02:51:44;;;;;;;2.90;1.90;;;;;;;22.07;47.57;99694.22;5034071;28;20085;-83
2022/08/23 02:54:11;;;;;;;7.20;2.15;;;;;;;22.05;47.60;99694.38;5033184;28;20077;-85
2022/08/23 02:56:39;;;;;;;5.63;2.08;;;;;;;22.05;47.48;99696.25;5033864;28;20095;-84
2022/08/23 02:59:05;;;;;;;3.05;1.70;;;;;;;22.05;47.98;99702.44;5033473;28;20095;-84
2022/08/23 03:01:36;;;;;;;2.63;1.55;;;;;;;22.05;47.85;99694.38;5033820;28;20115;-85
2022/08/23 03:04:06;;;;;;;4.20;2.00;;;;;;;22.07;47.82;99699.59;5034264;28;20045;-85
2022/08/23 03:06:33;;;;;;;2.40;1.73;;;;;;;22.10;47.13;99696.59;5034245;28;20053;-85
2022/08/23 03:09:00;;;;;;;2.55;1.70;;;;;;;22.08;47.67;99696.75;5033438;28;20466;-85
2022/08/23 03:11:27;;;;;;;5.22;2.00;;;;;;;22.09;47.73;99701.09;5034422;28;20081;-85
2022/08/23 03:13:55;;;;;;;2.65;1.70;;;;;;;22.08;47.79;99690.53;5034755;28;20045;-85
2022/08/23 03:16:23;;;;;;;3.78;1.98;;;;;;;22.06;47.83;99690.72;5034618;28;20096;-85
2022/08/23 03:18:49;;;;;;;2.97;1.77;;;;;;;22.05;47.96;99688.22;5036853;28;20105;-87
2022/08/23 03:21:17;;;;;;;2.65;1.60;;;;;;;22.02;47.75;99689.38;5038864;28;20095;-87
2022/08/23 03:23:44;;;;;;;3.05;1.70;;;;;;;22.01;48.14;99693.03;5037510;28;20487;-87
2022/08/23 03:26:13;;;;;;;2.70;1.60;;;;;;;21.99;47.44;99693.19;5032516;28;20088;-86
2022/08/23 03:28:42;;;;;;;4.07;1.63;;;;;;;21.98;47.18;99691.53;5031997;28;20099;-86
2022/08/23 03:31:09;;;;;;;2.97;1.73;;;;;;;21.97;47.72;99695.22;5032322;28;20099;-85
2022/08/23 03:33:37;;;;;;;3.60;1.60;;;;;;;21.97;47.50;99697.91;5031901;28;20136;-86
2022/08/23 03:36:06;;;;;;;4.00;1.60;;;;;;;21.96;47.60;99696.22;5032073;28;20063;-86
2022/08/23 03:38:33;;;;;;;2.45;1.70;;;;;;;21.98;47.59;99693.38;5030813;28;20050;-85
2022/08/23 03:41:00;;;;;;;3.42;1.80;;;;;;;21.98;47.49;99696.06;5030973;28;20050;-86
2022/08/23 03:43:27;;;;;;;3.42;1.85;;;;;;;21.98;47.38;99696.88;5032090;28;20061;-86
2022/08/23 03:45:54;;;;;;;2.40;1.60;;;;;;;21.99;47.43;99703.91;5032898;28;20458;-86
2022/08/23 03:48:21;;;;;;;2.55;1.55;;;;;;;21.99;47.30;99701.25;5030916;28;20045;-86
2022/08/23 03:50:47;;;;;;;4.28;2.17;;;;;;;22.01;47.78;99703.75;5033164;28;20053;-86
2022/08/23 03:53:15;;;;;;;3.28;1.73;;;;;;;22.02;47.67;99709.97;5031405;28;20074;-86
2022/08/23 03:55:42;;;;;;;3.53;1.92;;;;;;;22.02;47.27;99709.97;5032162;28;20049;-85
2022/08/23 03:58:10;;;;;;;4.45;1.98;;;;;;;22.00;47.62;99710.97;5031661;28;20450;-87
2022/08/23 04:00:37;;;;;;;4.00;1.95;;;;;;;22.00;47.56;99712.81;5032003;28;20057;-86
2022/08/23 04:03:04;;;;;;;7.43;2.10;;;;;;;22.00;47.73;99718.16;5031660;28;20053;-86
2022/08/23 04:05:31;;;;;;;4.60;2.17;;;;;;;21.99;47.70;99719.19;5032136;28;20493;-86
2022/08/23 04:07:59;;;;;;;2.80;1.98;;;;;;;21.98;47.87;99718.31;5032542;28;20045;-87
2022/08/23 04:10:25;;;;;;;6.40;1.73;;;;;;;21.95;47.88;99721.34;5031347;28;20053;-87
2022/08/23 04:12:53;;;;;;;3.17;1.63;;;;;;;21.93;47.74;99726.03;5031901;28;20454;-86
2022/08/23 04:15:21;;;;;;;3.10;1.90;;;;;;;21.90;48.23;99725.53;5032172;28;20053;-87
2022/08/23 04:17:47;;;;;;;2.95;1.65;;;;;;;21.87;48.05;99735.53;5033597;28;20491;-82
2022/08/23 04:20:14;;;;;;;5.10;1.48;;;;;;;21.83;48.51;99723.47;5036028;28;20069;-82
2022/08/23 04:22:41;;;;;;;8.68;2.40;;;;;;;21.81;48.53;99735.34;5037741;28;20057;-82
2022/08/23 04:25:11;;;;;;;7.90;2.20;;;;;;;21.77;49.23;99725.97;5037873;28;20152;-82
2022/08/23 04:27:58;;;;;;;4.38;2.33;;;;;;;21.72;49.25;99735.31;5036582;28;20498;-82
2022/08/23 04:30:25;;;;;;;2.17;1.90;;;;;;;21.68;49.25;99733.94;5036897;28;20072;-82
2022/08/23 04:32:52;;;;;;;4.03;1.95;;;;;;;21.64;49.47;99735.25;5038728;28;20056;-83
2022/08/23 04:35:19;;;;;;;3.30;2.22;;;;;;;21.60;49.70;99726.72;5035363;28;20064;-84
2022/08/23 04:37:46;;;;;;;3.67;2.08;;;;;;;21.57;49.57;99731.56;5034489;28;20049;-83
2022/08/23 04:42:58;;;;;;;2.08;1.60;;;;;;;21.49;49.29;99737.69;5035014;28;20103;-83
2022/08/23 04:45:25;;;;;;;2.65;1.65;;;;;;;21.46;49.51;99738.03;5033146;28;20499;-83
2022/08/23 04:47:53;;;;;;;3.55;1.88;;;;;;;21.43;49.66;99736.50;5033919;28;20057;-83
2022/08/23 04:50:20;;;;;;;2.03;1.52;;;;;;;21.40;49.84;99736.81;5033382;28;20056;-83
2022/08/23 04:52:47;;;;;;;4.60;2.22;;;;;;;21.38;49.81;99738.81;5034452;28;20049;-82
2022/08/23 04:55:14;;;;;;;4.05;1.92;;;;;;;21.37;49.94;99742.47;5033811;28;20060;-82
2022/08/23 04:57:41;;;;;;;5.57;1.92;;;;;;;21.34;49.80;99746.31;5033303;28;20057;-84
2022/08/23 05:00:11;;;;;;;3.63;1.80;;;;;;;21.33;49.90;99743.78;5033616;28;20828;-83
2022/08/23 05:02:38;;;;;;;3.08;1.90;;;;;;;21.31;49.91;99746.63;5036714;28;20061;-85
2022/08/23 05:05:07;;;;;;;2.65;1.80;;;;;;;21.29;49.75;99750.47;5038269;28;20053;-85
2022/08/23 05:07:34;;;;;;;2.60;1.80;;;;;;;21.29;49.58;99747.78;5035760;28;20049;-85
2022/08/23 05:10:12;;;;;;;2.60;1.73;;;;;;;21.28;49.59;99749.66;5037775;28;20050;-84
2022/08/23 05:12:39;;;;;;;6.32;2.08;;;;;;;21.30;50.03;99752.16;5039387;28;20055;-86
2022/08/23 05:15:08;;;;;;;2.97;1.70;;;;;;;21.31;49.13;99760.00;5039321;28;20058;-84
2022/08/23 05:17:35;;;;;;;3.05;1.85;;;;;;;21.34;49.25;99751.69;5038553;28;20515;-87
2022/08/23 05:20:03;;;;;;;2.88;1.63;;;;;;;21.38;49.17;99754.88;5034109;28;20063;-87
2022/08/23 05:22:35;;;;;;;3.22;1.85;;;;;;;21.40;49.98;99762.75;5033985;28;20115;-87
2022/08/23 05:25:03;;;;;;;4.20;2.10;;;;;;;21.46;49.74;99759.44;5034120;28;20407;-86
2022/08/23 05:27:29;;;;;;;3.70;1.90;;;;;;;21.50;49.14;99768.00;5033243;28;20057;-85
2022/08/23 05:29:56;;;;;;;2.88;1.65;;;;;;;21.53;49.50;99767.69;5034241;28;20103;-85
2022/08/23 05:32:23;;;;;;;2.83;1.90;;;;;;;21.55;49.25;99763.84;5034148;28;20064;-86
2022/08/23 05:34:49;;;;;;;4.20;1.65;;;;;;;21.59;49.02;99769.72;5033951;28;20057;-85
2022/08/23 05:37:16;;;;;;;2.85;1.60;;;;;;;21.60;49.36;99764.22;5033928;28;20049;-85
2022/08/23 05:39:43;;;;;;;5.22;1.88;;;;;;;21.64;49.21;99766.56;5032221;28;20060;-85
2022/08/23 05:42:14;;;;;;;2.75;1.70;;;;;;;21.66;49.38;99765.41;5032694;28;20565;-86
2022/08/23 05:44:42;;;;;;;2.80;1.83;;;;;;;21.70;49.24;99765.91;5032349;28;20065;-85
2022/08/23 05:47:12;;;;;;;3.08;1.60;;;;;;;21.70;48.58;99763.25;5032269;28;20053;-85
2022/08/23 05:49:41;;;;;;;2.83;1.50;;;;;;;21.74;49.04;99765.47;5032225;28;20079;-85
2022/08/23 05:52:11;;;;;;;3.47;1.90;;;;;;;21.78;48.73;99770.50;5030936;28;20284;-85
2022/08/23 05:54:39;;;;;;;6.85;2.10;;;;;;;21.82;48.66;99782.56;5032419;28;20049;-85
2022/08/23 05:57:05;;;;;;;2.95;1.85;;;;;;;21.86;48.46;99773.22;5032591;28;20053;-86
2022/08/23 05:59:32;;;;;;;3.65;1.48;;;;;;;21.90;48.74;99779.94;5032255;28;20049;-85
2022/08/23 06:01:59;;;;;;;3.50;1.77;;;;;;;21.95;48.66;99783.00;5031016;28;20060;-85
2022/08/23 06:04:25;;;;;;;6.78;1.67;;;;;;;22.02;48.85;99790.38;5030858;28;20046;-85
2022/08/23 06:06:55;;;;;;;6.43;1.70;;;;;;;22.06;48.40;99783.69;5032429;28;20061;-86
2022/08/23 06:09:21;;;;;;;3.28;1.67;;;;;;;22.11;48.22;99787.56;5032078;28;20054;-86
2022/08/23 06:11:48;;;;;;;3.35;1.80;;;;;;;22.18;48.30;99794.94;5031912;28;20050;-86
2022/08/23 06:14:15;;;;;;;4.20;1.73;;;;;;;22.23;48.05;99798.81;5030077;28;20499;-86
2022/08/23 06:16:47;;;;;;;2.95;1.70;;;;;;;22.28;48.41;99802.84;5031170;28;20499;-86
2022/08/23 06:19:19;;;;;;;6.90;1.75;;;;;;;22.35;48.17;99801.22;5031285;28;20041;-84
2022/08/23 06:21:46;;;;;;;4.40;1.77;;;;;;;22.40;48.32;99796.19;5031793;28;20499;-83
2022/08/23 06:24:13;;;;;;;5.05;1.83;;;;;;;22.46;47.88;99797.38;5032340;28;20053;-82
2022/08/23 06:26:43;;;;;;;2.58;1.38;;;;;;;22.50;48.47;99802.22;5032204;28;20053;-82
2022/08/23 06:29:13;;;;;;;3.55;1.70;;;;;;;22.57;48.36;99801.63;5031735;28;20069;-83
2022/08/23 06:31:45;;;;;;;5.57;2.17;;;;;;;22.63;48.59;99809.00;5032347;28;20059;-83
2022/08/23 06:34:16;;;;;;;3.55;1.95;;;;;;;22.68;48.50;99798.59;5032161;28;20049;-83
2022/08/23 06:36:45;;;;;;;3.90;1.92;;;;;;;22.72;48.21;99805.31;5032097;28;20126;-83
2022/08/23 06:39:14;;;;;;;2.92;1.77;;;;;;;22.77;47.78;99804.84;5031674;28;20053;-83
2022/08/23 06:41:41;;;;;;;8.27;1.63;;;;;;;22.82;47.78;99813.22;5032036;28;20136;-83
2022/08/23 06:44:08;;;;;;;4.75;1.52;;;;;;;22.86;47.72;99809.19;5031932;28;20056;-83
2022/08/23 06:46:35;;;;;;;3.35;1.60;;;;;;;22.93;47.70;99822.78;5031641;28;20046;-82
2022/08/23 06:49:04;;;;;;;5.47;1.63;;;;;;;22.99;48.02;99819.41;5031602;28;20050;-84
2022/08/23 06:51:36;;;;;;;6.57;1.77;;;;;;;23.04;47.41;99824.31;5030145;28;20053;-83
2022/08/23 06:54:07;;;;;;;3.95;1.50;;;;;;;23.11;47.15;99825.31;5030341;28;20060;-83
2022/08/23 06:56:35;;;;;;;3.22;1.73;;;;;;;23.18;47.63;99825.47;5031453;28;20124;-82
2022/08/23 06:59:05;;;;;;;3.50;1.80;;;;;;;23.25;46.88;99828.31;5031350;28;20358;-83
2022/08/23 07:01:31;;;;;;;6.75;1.33;;;;;;;23.32;46.98;99831.19;5031484;28;20057;-83
2022/08/23 07:04:18;;;;;;;4.15;1.60;;;;;;;23.37;46.76;99827.00;5031402;28;20053;-83
2022/08/23 07:06:45;;;;;;;6.65;1.95;;;;;;;23.45;46.67;99826.16;5031132;28;20049;-83
2022/08/23 07:09:12;;;;;;;3.35;1.83;;;;;;;23.52;46.49;99823.63;5030669;28;20045;-83
2022/08/23 07:11:39;;;;;;;20.67;2.47;;;;;;;23.58;46.87;99824.78;5031122;28;20056;-84
2022/08/23 07:14:10;;;;;;;1.77;1.20;;;;;;;23.63;46.70;99828.59;5030670;28;20060;-84
2022/08/23 07:16:44;;;;;;;2.78;1.58;;;;;;;23.69;46.51;99829.78;5031050;28;20390;-84
2022/08/23 07:19:11;;;;;;;2.42;1.65;;;;;;;23.76;46.51;99824.56;5031130;28;20045;-88
2022/08/23 07:21:37;;;;;;;3.85;1.70;;;;;;;23.81;46.63;99828.41;5031045;28;20049;-87
2022/08/23 07:24:04;;;;;;;3.00;1.38;;;;;;;23.86;45.96;99835.09;5031200;28;20068;-85
2022/08/23 07:26:31;;;;;;;8.48;1.92;;;;;;;23.91;46.01;99835.41;5034642;28;20056;-86
2022/08/23 07:28:58;;;;;;;2.97;1.45;;;;;;;23.96;45.84;99830.38;5034560;28;20055;-86
2022/08/23 07:31:30;;;;;;;3.75;1.70;;;;;;;24.00;46.16;99834.38;5033894;28;20080;-86
2022/08/23 07:33:58;;;;;;;4.32;1.63;;;;;;;24.06;45.99;99831.00;5034122;28;20060;-87
2022/08/23 07:36:27;;;;;;;5.50;1.60;;;;;;;24.12;45.61;99842.97;5033976;28;20423;-85
2022/08/23 07:38:55;;;;;;;5.00;1.40;;;;;;;24.19;45.97;99843.09;5035347;28;20514;-87
2022/08/23 07:41:24;;;;;;;4.05;1.58;;;;;;;24.24;46.06;99843.41;5033699;28;20064;-86
2022/08/23 07:43:50;;;;;;;4.20;1.48;;;;;;;24.29;45.92;99843.72;5034351;28;20050;-86
2022/08/23 07:46:17;;;;;;;2.35;1.35;;;;;;;24.34;45.79;99838.63;5032835;28;20096;-86
2022/08/23 07:48:45;;;;;;;3.60;1.52;;;;;;;24.39;44.92;99838.13;5034538;28;20046;-86
2022/08/23 07:51:20;;;;;;;6.57;1.50;;;;;;;24.46;44.75;99846.31;5036700;28;20064;-85
2022/08/23 07:53:47;;;;;;;2.95;1.48;;;;;;;24.51;44.80;99851.19;5036433;28;20049;-88
2022/08/23 07:56:16;;;;;;;3.90;1.63;;;;;;;24.54;43.89;99851.66;5035990;28;20428;-85
2022/08/23 07:58:43;;;;;;;5.95;1.70;;;;;;;24.60;43.85;99850.13;5035008;28;20060;-85
2022/08/23 08:01:16;;;;;;;5.18;1.60;;;;;;;24.64;43.98;99855.97;5035547;28;20495;-85
2022/08/23 08:03:46;;;;;;;3.08;1.70;;;;;;;24.68;43.81;99852.75;5036951;28;20054;-87
2022/08/23 08:06:17;;;;;;;2.72;1.60;;;;;;;24.73;43.43;99858.44;5035472;28;20052;-87
2022/08/23 08:08:45;;;;;;;7.07;1.80;;;;;;;24.79;43.99;99862.28;5034813;28;20056;-84
2022/08/23 08:11:15;;;;;;;3.03;1.65;;;;;;;24.84;43.45;99865.28;5036091;28;20503;-87
2022/08/23 08:13:44;;;;;;;3.80;1.45;;;;;;;24.88;43.70;99868.47;5037128;28;20052;-85
2022/08/23 08:16:21;;;;;;;1.95;1.30;;;;;;;24.91;43.50;99867.25;5038543;28;20053;-86
2022/08/23 08:18:48;;;;;;;3.30;1.65;;;;;;;25.00;43.14;99870.75;5035700;28;20075;-86
2022/08/23 08:21:16;;;;;;;2.55;1.80;;;;;;;25.04;43.17;99867.50;5033478;28;20061;-86
2022/08/23 08:23:43;;;;;;;4.13;1.73;;;;;;;25.10;43.06;99869.47;5032065;28;20479;-86
2022/08/23 08:26:10;;;;;;;2.97;1.42;;;;;;;25.16;43.43;99875.16;5032445;28;20057;-85
2022/08/23 08:28:37;;;;;;;4.32;1.60;;;;;;;25.22;42.93;99879.81;5032326;28;20049;-85
2022/08/23 08:31:05;;;;;;;5.80;1.80;;;;;;;25.27;43.14;99876.59;5030689;28;20111;-84
2022/08/23 08:33:31;;;;;;;3.28;1.55;;;;;;;25.34;42.85;99877.53;5029810;28;20049;-82
2022/08/23 08:36:00;;;;;;;3.97;1.77;;;;;;;25.40;42.68;99870.56;5031507;28;20045;-83
2022/08/23 08:38:30;;;;;;;3.30;1.83;;;;;;;25.49;43.47;99874.88;5030851;28;20060;-83
2022/08/23 08:41:17;;;;;;;2.30;1.60;;;;;;;25.53;42.92;99881.56;5030365;28;20053;-83
2022/08/23 08:44:00;;;;;;;3.77;1.93;;;;;;;25.65;41.96;99873.06;5033611;28;20053;-82
2022/08/23 08:46:46;;;;;;;3.42;1.70;;;;;;;25.71;41.66;99867.78;5034723;28;20049;-82
2022/08/23 08:56:49;;;;;;;4.03;1.75;;;;;;;26.07;42.43;99868.91;5028541;28;20075;-83
2022/08/23 08:59:42;;;;;;;1.60;1.23;;;;;;;26.12;42.27;99871.88;5034507;28;20647;-82
2022/08/23 09:02:19;;;;;;;3.25;1.67;;;;;;;26.23;41.06;99878.66;5034549;28;20057;-85
2022/08/23 09:05:10;;;;;;;3.83;1.40;;;;;;;26.33;40.68;99874.84;5034498;28;20056;-85
2022/08/23 09:07:43;;;;;;;3.65;1.75;;;;;;;26.45;41.76;99881.44;5034528;28;20056;-85
2022/08/23 09:10:25;;;;;;;3.95;1.67;;;;;;;26.51;40.42;99882.53;5034255;28;20377;-84
2022/08/23 09:12:58;;;;;;;4.10;1.65;;;;;;;26.61;40.37;99877.66;5034403;28;20053;-85
2022/08/23 09:15:33;;;;;;;9.77;1.73;;;;;;;26.70;40.79;99885.66;5034184;28;20056;-85
2022/08/23 09:18:09;;;;;;;4.80;1.67;;;;;;;26.80;40.28;99880.78;5035392;28;20530;-85
2022/08/23 09:20:37;;;;;;;2.25;1.40;;;;;;;26.93;39.96;99886.34;5035546;28;20045;-86
2022/08/23 09:23:11;;;;;;;3.15;1.85;;;;;;;27.00;39.02;99886.44;5035250;28;20056;-86
2022/08/23 09:25:37;;;;;;;9.40;1.90;;;;;;;27.13;39.97;99883.00;5034760;28;20107;-86
2022/08/23 09:28:04;;;;;;;2.60;1.67;;;;;;;27.22;39.75;99880.16;5032779;28;20131;-85
2022/08/23 09:30:54;;;;;;;4.50;1.60;;;;;;;27.27;40.30;99880.41;5035594;28;20107;-87
2022/08/23 09:33:24;;;;;;;3.78;1.80;;;;;;;27.42;39.40;99883.03;5036918;28;20057;-86
2022/08/23 09:36:03;;;;;;;6.20;2.00;;;;;;;27.50;39.77;99887.47;5035595;28;20053;-87
2022/08/23 09:38:35;;;;;;;3.67;1.38;;;;;;;27.62;38.87;99882.41;5033674;28;20111;-86
2022/08/23 09:41:18;;;;;;;2.83;1.50;;;;;;;27.69;39.80;99877.84;5033335;28;20434;-85
2022/08/23 09:43:47;;;;;;;5.80;1.88;;;;;;;27.83;39.21;99876.91;5035823;28;20061;-83
2022/08/23 09:46:23;;;;;;;3.08;1.52;;;;;;;27.90;39.84;99879.66;5035482;28;20045;-87
2022/08/23 09:48:54;;;;;;;1.85;1.30;;;;;;;28.04;39.35;99877.88;5035435;28;20096;-84
2022/08/23 09:51:33;;;;;;;2.97;1.95;;;;;;;28.12;39.54;99874.16;5034063;28;20064;-87
2022/08/23 09:54:32;;;;;;;4.25;2.20;;;;;;;28.27;38.61;99881.31;5033857;28;20133;-84
2022/08/23 09:57:10;;;;;;;2.30;1.55;;;;;;;28.39;39.20;99870.75;5030857;28;20111;-84
2022/08/23 09:59:44;;;;;;;3.00;1.45;;;;;;;28.54;39.76;99874.13;5034559;28;20053;-85
2022/08/23 10:02:16;;;;;;;1.90;1.33;;;;;;;28.64;38.94;99879.16;5034706;28;20103;-83
2022/08/23 10:04:58;;;;;;;3.35;2.10;;;;;;;28.72;38.74;99873.56;5033388;28;20064;-84
2022/08/23 10:07:37;;;;;;;2.95;1.65;;;;;;;28.85;39.16;99870.03;5034576;28;20399;-85
2022/08/23 10:10:20;;;;;;;3.08;1.55;;;;;;;28.95;40.65;99871.53;5034592;28;20503;-84
2022/08/23 10:12:46;;;;;;;2.28;1.92;;;;;;;29.09;39.21;99869.69;5035290;28;20056;-84
2022/08/23 10:15:15;;;;;;;2.25;1.50;;;;;;;29.19;39.13;99864.66;5034276;28;20055;-86
2022/08/23 10:17:57;;;;;;;1.85;1.38;;;;;;;29.29;38.42;99863.44;5033111;28;20060;-84
2022/08/23 10:20:39;;;;;;;3.17;1.60;;;;;;;29.38;38.05;99862.19;5035621;28;20042;-83
2022/08/23 10:23:27;;;;;;;3.95;1.95;;;;;;;29.51;38.90;99866.75;5036175;28;20053;-84
2022/08/23 10:25:57;;;;;;;2.92;1.48;;;;;;;29.65;38.94;99868.41;5037483;28;20060;-83
2022/08/23 10:31:43;;;;;;;2.20;1.35;;;;;;;29.89;36.91;99859.81;5034890;28;20507;-83
2022/08/23 10:34:44;;;;;;;3.20;1.65;;;;;;;29.99;38.56;99857.50;5035511;28;20052;-84
2022/08/23 10:37:47;;;;;;;5.30;1.45;;;;;;;30.12;37.75;99858.50;5033430;28;20133;-83
2022/08/23 10:40:24;;;;;;;2.95;1.67;;;;;;;30.27;37.12;99861.81;5033605;28;20045;-86
2022/08/23 10:43:03;;;;;;;2.72;1.70;;;;;;;30.33;36.25;99859.25;5035019;28;20057;-86
2022/08/23 10:45:35;;;;;;;2.97;1.40;;;;;;;30.43;36.80;99852.31;5036042;28;20104;-85
2022/08/23 10:48:27;;;;;;;2.55;1.55;;;;;;;30.53;36.52;99856.44;5035043;28;20506;-86
2022/08/23 10:51:04;;;;;;;2.75;1.70;;;;;;;30.68;36.09;99856.16;5033746;28;20134;-85
2022/08/23 10:53:45;;;;;;;2.88;1.75;;;;;;;30.80;36.86;99857.16;5034518;28;20057;-85
2022/08/23 10:56:19;;;;;;;7.90;1.52;;;;;;;30.99;35.97;99853.69;5035027;28;20054;-84
2022/08/23 10:58:59;;;;;;;2.85;1.70;;;;;;;31.21;36.92;99852.25;5034516;28;20057;-86
2022/08/23 11:01:27;;;;;;;3.97;1.60;;;;;;;31.51;37.24;99849.91;5034488;28;20426;-84
2022/08/23 11:04:12;;;;;;;2.55;1.30;;;;;;;31.82;35.35;99851.69;5034843;28;20460;-86
2022/08/23 11:06:44;;;;;;;3.10;1.48;;;;;;;32.32;35.48;99846.28;5035653;28;20053;-84
2022/08/23 11:09:13;;;;;;;3.95;1.80;;;;;;;32.85;35.16;99850.16;5034346;28;20045;-85
2022/08/23 11:11:49;;;;;;;1.98;1.30;;;;;;;33.46;35.64;99848.34;5034991;28;20049;-85
2022/08/23 11:14:40;;;;;;;5.07;1.50;;;;;;;34.12;34.80;99848.19;5034327;28;20519;-85
2022/08/23 11:17:11;;;;;;;2.22;1.40;;;;;;;34.83;34.37;99844.31;5034492;28;20057;-84
2022/08/23 11:20:03;;;;;;;3.13;1.30;;;;;;;35.52;33.46;99847.03;5034631;28;20457;-85
2022/08/23 11:22:55;;;;;;;2.05;1.40;;;;;;;36.21;32.74;99836.69;5033167;28;20469;-86
2022/08/23 11:25:22;;;;;;;5.68;1.52;;;;;;;36.84;31.32;99843.63;5033437;28;20068;-83
2022/08/23 11:27:49;;;;;;;1.42;1.20;;;;;;;37.34;29.89;99839.91;5032437;28;20396;-87
2022/08/23 11:30:30;;;;;;;5.43;1.30;;;;;;;37.79;28.86;99840.44;5033312;28;20053;-85
2022/08/23 11:33:10;;;;;;;;;;;;;;;38.17;31.85;99841.16;5033825;28;20057;-83
2022/08/23 11:35:40;;;;;;;6.07;1.63;;;;;;;38.68;28.83;99834.09;5034471;28;20023;-84
2022/08/23 11:38:12;;;;;;;2.17;1.10;;;;;;;39.02;26.56;99829.16;5032375;28;20045;-84
2022/08/23 11:40:41;;;;;;;4.55;1.50;;;;;;;39.33;27.04;99834.63;5032457;28;20499;-84
2022/08/23 11:43:21;;;;;;;3.05;1.30;;;;;;;39.59;26.21;99834.56;5034265;28;20053;-85
2022/08/23 11:45:48;;;;;;;1.30;1.20;;;;;;;39.86;26.14;99828.69;5032115;28;20057;-84
2022/08/23 11:48:18;;;;;;;3.35;1.25;;;;;;;40.10;25.76;99830.78;5032862;28;20346;-84
2022/08/23 11:50:58;;;;;;;2.20;1.17;;;;;;;40.29;25.21;99837.56;5033062;28;20064;-84
2022/08/23 11:53:59;;;;;;;2.42;1.33;;;;;;;40.46;25.71;99829.75;5031531;28;20054;-84
2022/08/23 11:56:26;;;;;;;2.63;1.58;;;;;;;40.62;23.73;99837.94;5032850;28;20053;-83
2022/08/23 11:59:28;;;;;;;2.40;1.40;;;;;;;40.53;23.54;99834.94;5036223;28;20053;-83
2022/08/23 12:01:58;;;;;;;1.40;1.17;;;;;;;40.55;23.88;99832.75;5037780;28;20054;-83
2022/08/23 12:04:36;;;;;;;2.65;1.20;;;;;;;40.47;24.19;99830.59;5036733;28;20507;-84
2022/08/23 12:07:11;;;;;;;2.55;1.35;;;;;;;40.51;25.12;99832.47;5037968;28;20057;-83
2022/08/23 12:09:40;;;;;;;2.30;1.42;;;;;;;40.58;23.26;99829.38;5036797;28;20049;-85
2022/08/23 12:12:25;;;;;;;2.40;1.50;;;;;;;40.68;24.62;99831.25;5034637;28;20053;-84
2022/08/23 12:14:56;;;;;;;3.03;1.50;;;;;;;40.90;23.70;99825.28;5034836;28;20045;-84